sensor_id;sensor_type;location;lat;lon;timestamp;P1;durP1;ratioP1;P2;durP2;ratioP2
24161;SDS011;12318;51.262;7.066;2023-04-03T00:00:22;10.10;;;5.55;;
24161;SDS011;12318;51.262;7.066;2023-04-03T00:02:48;8.48;;;5.30;;
24161;SDS011;12318;51.262;7.066;2023-04-03T00:05:14;8.50;;;5.65;;
24161;SDS011;12318;51.262;7.066;2023-04-03T00:07:40;10.02;;;5.05;;
24161;SDS011;12318;51.262;7.066;2023-04-03T00:10:06;7.80;;;4.80;;
24161;SDS011;12318;51.262;7.066;2023-04-03T00:12:32;10.18;;;6.45;;
24161;SDS011;12318;51.262;7.066;2023-04-03T00:14:58;15.43;;;7.20;;
24161;SDS011;12318;51.262;7.066;2023-04-03T00:17:24;12.07;;;8.07;;
24161;SDS011;12318;51.262;7.066;2023-04-03T00:19:50;13.90;;;8.27;;
24161;SDS011;12318;51.262;7.066;2023-04-03T00:22:16;14.50;;;8.48;;
24161;SDS011;12318;51.262;7.066;2023-04-03T00:24:42;11.73;;;8.20;;
24161;SDS011;12318;51.262;7.066;2023-04-03T00:27:07;12.00;;;7.65;;
24161;SDS011;12318;51.262;7.066;2023-04-03T00:29:33;14.57;;;8.20;;
24161;SDS011;12318;51.262;7.066;2023-04-03T00:31:59;14.77;;;7.13;;
24161;SDS011;12318;51.262;7.066;2023-04-03T00:34:25;11.48;;;7.30;;
24161;SDS011;12318;51.262;7.066;2023-04-03T00:36:51;17.13;;;8.75;;
24161;SDS011;12318;51.262;7.066;2023-04-03T00:39:17;13.63;;;8.35;;
24161;SDS011;12318;51.262;7.066;2023-04-03T00:41:43;13.75;;;7.85;;
24161;SDS011;12318;51.262;7.066;2023-04-03T00:46:53;9.60;;;6.57;;
24161;SDS011;12318;51.262;7.066;2023-04-03T00:49:18;10.25;;;6.03;;
24161;SDS011;12318;51.262;7.066;2023-04-03T00:51:45;12.02;;;6.40;;
24161;SDS011;12318;51.262;7.066;2023-04-03T00:54:11;12.60;;;6.53;;
24161;SDS011;12318;51.262;7.066;2023-04-03T00:56:38;11.13;;;6.28;;
24161;SDS011;12318;51.262;7.066;2023-04-03T00:59:06;11.90;;;6.80;;
24161;SDS011;12318;51.262;7.066;2023-04-03T01:01:41;12.20;;;6.80;;
24161;SDS011;12318;51.262;7.066;2023-04-03T01:06:55;14.27;;;6.65;;
24161;SDS011;12318;51.262;7.066;2023-04-03T01:09:23;15.57;;;7.47;;
24161;SDS011;12318;51.262;7.066;2023-04-03T01:11:49;14.75;;;7.20;;
24161;SDS011;12318;51.262;7.066;2023-04-03T01:14:15;12.02;;;6.45;;
24161;SDS011;12318;51.262;7.066;2023-04-03T01:16:41;10.27;;;6.07;;
24161;SDS011;12318;51.262;7.066;2023-04-03T01:19:07;10.10;;;5.70;;
24161;SDS011;12318;51.262;7.066;2023-04-03T01:26:56;9.25;;;5.38;;
24161;SDS011;12318;51.262;7.066;2023-04-03T01:29:22;9.50;;;5.32;;
24161;SDS011;12318;51.262;7.066;2023-04-03T01:31:52;7.82;;;4.93;;
24161;SDS011;12318;51.262;7.066;2023-04-03T01:34:23;11.23;;;5.38;;
24161;SDS011;12318;51.262;7.066;2023-04-03T01:36:49;13.40;;;5.30;;
24161;SDS011;12318;51.262;7.066;2023-04-03T01:39:16;10.02;;;5.28;;
24161;SDS011;12318;51.262;7.066;2023-04-03T01:41:42;10.60;;;4.93;;
24161;SDS011;12318;51.262;7.066;2023-04-03T01:44:08;11.20;;;5.47;;
24161;SDS011;12318;51.262;7.066;2023-04-03T01:46:34;7.88;;;5.00;;
24161;SDS011;12318;51.262;7.066;2023-04-03T01:49:00;10.32;;;5.13;;
24161;SDS011;12318;51.262;7.066;2023-04-03T01:51:26;9.52;;;5.13;;
24161;SDS011;12318;51.262;7.066;2023-04-03T01:53:52;8.15;;;4.80;;
24161;SDS011;12318;51.262;7.066;2023-04-03T01:56:18;11.68;;;4.75;;
24161;SDS011;12318;51.262;7.066;2023-04-03T01:58:43;8.85;;;4.97;;
24161;SDS011;12318;51.262;7.066;2023-04-03T02:01:09;14.70;;;4.38;;
24161;SDS011;12318;51.262;7.066;2023-04-03T02:03:35;8.80;;;4.53;;
24161;SDS011;12318;51.262;7.066;2023-04-03T02:06:01;10.50;;;4.53;;
24161;SDS011;12318;51.262;7.066;2023-04-03T02:08:27;7.25;;;3.90;;
24161;SDS011;12318;51.262;7.066;2023-04-03T02:10:53;10.77;;;4.32;;
24161;SDS011;12318;51.262;7.066;2023-04-03T02:13:19;6.93;;;4.10;;
24161;SDS011;12318;51.262;7.066;2023-04-03T02:15:45;11.80;;;4.30;;
24161;SDS011;12318;51.262;7.066;2023-04-03T02:18:11;9.70;;;4.85;;
24161;SDS011;12318;51.262;7.066;2023-04-03T02:20:37;12.93;;;4.93;;
24161;SDS011;12318;51.262;7.066;2023-04-03T02:23:03;8.57;;;4.60;;
24161;SDS011;12318;51.262;7.066;2023-04-03T02:25:32;7.40;;;4.45;;
24161;SDS011;12318;51.262;7.066;2023-04-03T02:27:58;7.72;;;4.25;;
24161;SDS011;12318;51.262;7.066;2023-04-03T02:30:24;9.05;;;4.35;;
24161;SDS011;12318;51.262;7.066;2023-04-03T02:32:51;11.07;;;4.80;;
24161;SDS011;12318;51.262;7.066;2023-04-03T02:35:17;8.20;;;4.60;;
24161;SDS011;12318;51.262;7.066;2023-04-03T02:37:43;11.82;;;4.38;;
24161;SDS011;12318;51.262;7.066;2023-04-03T02:40:09;9.98;;;4.68;;
24161;SDS011;12318;51.262;7.066;2023-04-03T02:42:36;9.75;;;4.47;;
24161;SDS011;12318;51.262;7.066;2023-04-03T02:45:02;9.82;;;4.75;;
24161;SDS011;12318;51.262;7.066;2023-04-03T02:47:29;11.40;;;4.25;;
24161;SDS011;12318;51.262;7.066;2023-04-03T02:49:54;7.53;;;4.22;;
24161;SDS011;12318;51.262;7.066;2023-04-03T02:52:20;8.57;;;4.72;;
24161;SDS011;12318;51.262;7.066;2023-04-03T02:54:46;9.45;;;4.25;;
24161;SDS011;12318;51.262;7.066;2023-04-03T02:57:12;12.15;;;3.88;;
24161;SDS011;12318;51.262;7.066;2023-04-03T02:59:38;7.43;;;3.72;;
24161;SDS011;12318;51.262;7.066;2023-04-03T03:02:07;7.13;;;3.83;;
24161;SDS011;12318;51.262;7.066;2023-04-03T03:04:34;9.02;;;3.90;;
24161;SDS011;12318;51.262;7.066;2023-04-03T03:07:00;12.13;;;4.00;;
24161;SDS011;12318;51.262;7.066;2023-04-03T03:09:26;11.25;;;4.30;;
24161;SDS011;12318;51.262;7.066;2023-04-03T03:11:52;10.02;;;4.53;;
24161;SDS011;12318;51.262;7.066;2023-04-03T03:14:17;7.65;;;4.03;;
24161;SDS011;12318;51.262;7.066;2023-04-03T03:16:43;9.63;;;4.30;;
24161;SDS011;12318;51.262;7.066;2023-04-03T03:19:09;8.48;;;4.00;;
24161;SDS011;12318;51.262;7.066;2023-04-03T03:21:35;13.52;;;4.05;;
24161;SDS011;12318;51.262;7.066;2023-04-03T03:24:01;12.52;;;4.18;;
24161;SDS011;12318;51.262;7.066;2023-04-03T03:26:27;14.02;;;4.32;;
24161;SDS011;12318;51.262;7.066;2023-04-03T03:28:53;12.77;;;4.30;;
24161;SDS011;12318;51.262;7.066;2023-04-03T03:31:19;8.52;;;3.85;;
24161;SDS011;12318;51.262;7.066;2023-04-03T03:33:45;10.18;;;4.03;;
24161;SDS011;12318;51.262;7.066;2023-04-03T03:36:11;11.30;;;4.10;;
24161;SDS011;12318;51.262;7.066;2023-04-03T03:38:36;7.97;;;4.10;;
24161;SDS011;12318;51.262;7.066;2023-04-03T03:41:02;11.52;;;4.22;;
24161;SDS011;12318;51.262;7.066;2023-04-03T03:43:28;8.30;;;3.55;;
24161;SDS011;12318;51.262;7.066;2023-04-03T03:45:55;14.02;;;4.30;;
24161;SDS011;12318;51.262;7.066;2023-04-03T03:48:20;7.15;;;3.60;;
24161;SDS011;12318;51.262;7.066;2023-04-03T03:50:47;11.68;;;3.75;;
24161;SDS011;12318;51.262;7.066;2023-04-03T03:53:13;11.60;;;3.90;;
24161;SDS011;12318;51.262;7.066;2023-04-03T03:55:40;9.88;;;4.53;;
24161;SDS011;12318;51.262;7.066;2023-04-03T03:58:05;11.88;;;3.90;;
24161;SDS011;12318;51.262;7.066;2023-04-03T04:00:32;7.57;;;3.70;;
24161;SDS011;12318;51.262;7.066;2023-04-03T04:02:58;13.70;;;4.20;;
24161;SDS011;12318;51.262;7.066;2023-04-03T04:05:23;11.32;;;3.92;;
24161;SDS011;12318;51.262;7.066;2023-04-03T04:07:49;9.07;;;3.67;;
24161;SDS011;12318;51.262;7.066;2023-04-03T04:10:15;11.77;;;4.05;;
24161;SDS011;12318;51.262;7.066;2023-04-03T04:12:41;8.07;;;3.40;;
24161;SDS011;12318;51.262;7.066;2023-04-03T04:15:07;9.18;;;3.75;;
24161;SDS011;12318;51.262;7.066;2023-04-03T04:17:34;8.82;;;3.42;;
24161;SDS011;12318;51.262;7.066;2023-04-03T04:20:00;9.88;;;3.92;;
24161;SDS011;12318;51.262;7.066;2023-04-03T04:22:27;6.80;;;3.70;;
24161;SDS011;12318;51.262;7.066;2023-04-03T04:24:53;6.68;;;3.55;;
24161;SDS011;12318;51.262;7.066;2023-04-03T04:27:19;8.38;;;3.60;;
24161;SDS011;12318;51.262;7.066;2023-04-03T04:29:45;10.32;;;4.55;;
24161;SDS011;12318;51.262;7.066;2023-04-03T04:32:11;7.85;;;3.90;;
24161;SDS011;12318;51.262;7.066;2023-04-03T04:34:36;7.85;;;4.00;;
24161;SDS011;12318;51.262;7.066;2023-04-03T04:37:02;6.68;;;3.63;;
24161;SDS011;12318;51.262;7.066;2023-04-03T04:39:28;10.00;;;4.00;;
24161;SDS011;12318;51.262;7.066;2023-04-03T04:41:54;9.13;;;4.18;;
24161;SDS011;12318;51.262;7.066;2023-04-03T04:44:20;10.82;;;4.40;;
24161;SDS011;12318;51.262;7.066;2023-04-03T04:46:46;11.80;;;4.53;;
24161;SDS011;12318;51.262;7.066;2023-04-03T04:49:11;10.32;;;3.72;;
24161;SDS011;12318;51.262;7.066;2023-04-03T04:51:37;10.27;;;4.00;;
24161;SDS011;12318;51.262;7.066;2023-04-03T04:54:03;9.25;;;4.20;;
24161;SDS011;12318;51.262;7.066;2023-04-03T04:56:29;11.23;;;3.75;;
24161;SDS011;12318;51.262;7.066;2023-04-03T04:58:55;12.02;;;4.20;;
24161;SDS011;12318;51.262;7.066;2023-04-03T05:01:21;8.13;;;3.70;;
24161;SDS011;12318;51.262;7.066;2023-04-03T05:03:46;8.65;;;3.72;;
24161;SDS011;12318;51.262;7.066;2023-04-03T05:06:13;13.30;;;4.55;;
24161;SDS011;12318;51.262;7.066;2023-04-03T05:08:38;8.65;;;4.30;;
24161;SDS011;12318;51.262;7.066;2023-04-03T05:11:04;7.88;;;3.75;;
24161;SDS011;12318;51.262;7.066;2023-04-03T05:13:30;9.20;;;3.67;;
24161;SDS011;12318;51.262;7.066;2023-04-03T05:15:56;11.40;;;3.55;;
24161;SDS011;12318;51.262;7.066;2023-04-03T05:18:22;9.30;;;4.00;;
24161;SDS011;12318;51.262;7.066;2023-04-03T05:20:48;11.93;;;3.58;;
24161;SDS011;12318;51.262;7.066;2023-04-03T05:23:16;11.68;;;3.80;;
24161;SDS011;12318;51.262;7.066;2023-04-03T05:25:43;8.38;;;3.30;;
24161;SDS011;12318;51.262;7.066;2023-04-03T05:28:10;12.45;;;4.40;;
24161;SDS011;12318;51.262;7.066;2023-04-03T05:30:36;11.73;;;3.80;;
24161;SDS011;12318;51.262;7.066;2023-04-03T05:33:02;10.15;;;3.85;;
24161;SDS011;12318;51.262;7.066;2023-04-03T05:35:28;8.70;;;4.10;;
24161;SDS011;12318;51.262;7.066;2023-04-03T05:37:54;12.82;;;3.88;;
24161;SDS011;12318;51.262;7.066;2023-04-03T05:40:19;12.07;;;4.30;;
24161;SDS011;12318;51.262;7.066;2023-04-03T05:42:45;12.32;;;4.15;;
24161;SDS011;12318;51.262;7.066;2023-04-03T05:45:11;13.70;;;3.88;;
24161;SDS011;12318;51.262;7.066;2023-04-03T05:47:37;11.65;;;3.90;;
24161;SDS011;12318;51.262;7.066;2023-04-03T05:50:03;10.57;;;3.83;;
24161;SDS011;12318;51.262;7.066;2023-04-03T05:52:31;14.23;;;4.40;;
24161;SDS011;12318;51.262;7.066;2023-04-03T05:55:00;10.65;;;3.92;;
24161;SDS011;12318;51.262;7.066;2023-04-03T05:57:26;10.40;;;3.90;;
24161;SDS011;12318;51.262;7.066;2023-04-03T05:59:51;12.50;;;4.28;;
24161;SDS011;12318;51.262;7.066;2023-04-03T06:02:19;10.63;;;4.05;;
24161;SDS011;12318;51.262;7.066;2023-04-03T06:04:46;13.55;;;3.88;;
24161;SDS011;12318;51.262;7.066;2023-04-03T06:07:19;16.38;;;4.68;;
24161;SDS011;12318;51.262;7.066;2023-04-03T06:09:47;10.20;;;3.47;;
24161;SDS011;12318;51.262;7.066;2023-04-03T06:12:14;13.02;;;3.60;;
24161;SDS011;12318;51.262;7.066;2023-04-03T06:14:40;9.63;;;3.60;;
24161;SDS011;12318;51.262;7.066;2023-04-03T06:17:06;12.02;;;3.85;;
24161;SDS011;12318;51.262;7.066;2023-04-03T06:19:33;12.98;;;3.38;;
24161;SDS011;12318;51.262;7.066;2023-04-03T06:21:59;9.93;;;3.00;;
24161;SDS011;12318;51.262;7.066;2023-04-03T06:24:25;10.55;;;3.28;;
24161;SDS011;12318;51.262;7.066;2023-04-03T06:26:51;10.98;;;3.30;;
24161;SDS011;12318;51.262;7.066;2023-04-03T06:29:17;8.20;;;3.20;;
24161;SDS011;12318;51.262;7.066;2023-04-03T06:31:44;11.18;;;3.33;;
24161;SDS011;12318;51.262;7.066;2023-04-03T06:34:10;12.02;;;3.35;;
24161;SDS011;12318;51.262;7.066;2023-04-03T06:36:36;7.65;;;3.40;;
24161;SDS011;12318;51.262;7.066;2023-04-03T06:39:03;6.97;;;2.95;;
24161;SDS011;12318;51.262;7.066;2023-04-03T06:41:30;14.45;;;3.58;;
24161;SDS011;12318;51.262;7.066;2023-04-03T06:43:56;13.43;;;3.20;;
24161;SDS011;12318;51.262;7.066;2023-04-03T06:46:23;12.10;;;3.30;;
24161;SDS011;12318;51.262;7.066;2023-04-03T06:48:50;9.35;;;3.05;;
24161;SDS011;12318;51.262;7.066;2023-04-03T06:53:46;9.25;;;3.25;;
24161;SDS011;12318;51.262;7.066;2023-04-03T06:56:13;6.05;;;2.63;;
24161;SDS011;12318;51.262;7.066;2023-04-03T06:58:40;10.10;;;3.20;;
24161;SDS011;12318;51.262;7.066;2023-04-03T07:01:06;6.65;;;2.60;;
24161;SDS011;12318;51.262;7.066;2023-04-03T07:03:32;8.43;;;2.63;;
24161;SDS011;12318;51.262;7.066;2023-04-03T07:05:58;9.50;;;2.72;;
24161;SDS011;12318;51.262;7.066;2023-04-03T07:08:24;11.00;;;2.80;;
24161;SDS011;12318;51.262;7.066;2023-04-03T07:10:51;13.00;;;2.70;;
24161;SDS011;12318;51.262;7.066;2023-04-03T07:13:17;9.05;;;2.72;;
24161;SDS011;12318;51.262;7.066;2023-04-03T07:15:42;8.93;;;2.97;;
24161;SDS011;12318;51.262;7.066;2023-04-03T07:18:09;9.63;;;2.85;;
24161;SDS011;12318;51.262;7.066;2023-04-03T07:20:34;7.10;;;2.20;;
24161;SDS011;12318;51.262;7.066;2023-04-03T07:23:00;9.30;;;2.60;;
24161;SDS011;12318;51.262;7.066;2023-04-03T07:25:27;10.40;;;2.65;;
24161;SDS011;12318;51.262;7.066;2023-04-03T07:27:53;8.00;;;2.80;;
24161;SDS011;12318;51.262;7.066;2023-04-03T07:30:22;7.22;;;2.00;;
24161;SDS011;12318;51.262;7.066;2023-04-03T07:32:48;5.75;;;2.25;;
24161;SDS011;12318;51.262;7.066;2023-04-03T07:35:14;8.00;;;2.00;;
24161;SDS011;12318;51.262;7.066;2023-04-03T07:37:41;7.10;;;2.08;;
24161;SDS011;12318;51.262;7.066;2023-04-03T07:40:07;7.22;;;2.05;;
24161;SDS011;12318;51.262;7.066;2023-04-03T07:42:34;5.88;;;2.00;;
24161;SDS011;12318;51.262;7.066;2023-04-03T07:45:01;10.00;;;2.40;;
24161;SDS011;12318;51.262;7.066;2023-04-03T07:47:36;7.97;;;1.90;;
24161;SDS011;12318;51.262;7.066;2023-04-03T07:50:02;8.65;;;2.65;;
24161;SDS011;12318;51.262;7.066;2023-04-03T07:52:28;8.73;;;2.20;;
24161;SDS011;12318;51.262;7.066;2023-04-03T07:54:54;8.00;;;2.28;;
24161;SDS011;12318;51.262;7.066;2023-04-03T07:57:19;6.97;;;2.05;;
24161;SDS011;12318;51.262;7.066;2023-04-03T07:59:45;5.32;;;1.73;;
24161;SDS011;12318;51.262;7.066;2023-04-03T08:02:11;5.57;;;1.88;;
24161;SDS011;12318;51.262;7.066;2023-04-03T08:04:37;7.20;;;1.98;;
24161;SDS011;12318;51.262;7.066;2023-04-03T08:07:03;5.13;;;2.25;;
24161;SDS011;12318;51.262;7.066;2023-04-03T08:09:29;10.40;;;2.10;;
24161;SDS011;12318;51.262;7.066;2023-04-03T08:11:56;7.63;;;2.40;;
24161;SDS011;12318;51.262;7.066;2023-04-03T08:14:23;8.23;;;1.98;;
24161;SDS011;12318;51.262;7.066;2023-04-03T08:16:49;7.22;;;1.95;;
24161;SDS011;12318;51.262;7.066;2023-04-03T08:19:15;4.15;;;1.80;;
24161;SDS011;12318;51.262;7.066;2023-04-03T08:21:43;9.50;;;1.90;;
24161;SDS011;12318;51.262;7.066;2023-04-03T08:24:10;7.88;;;1.90;;
24161;SDS011;12318;51.262;7.066;2023-04-03T08:26:36;5.28;;;1.90;;
24161;SDS011;12318;51.262;7.066;2023-04-03T08:29:02;5.35;;;1.85;;
24161;SDS011;12318;51.262;7.066;2023-04-03T08:31:29;9.55;;;1.98;;
24161;SDS011;12318;51.262;7.066;2023-04-03T08:33:56;8.38;;;1.70;;
24161;SDS011;12318;51.262;7.066;2023-04-03T08:36:23;4.25;;;1.70;;
24161;SDS011;12318;51.262;7.066;2023-04-03T08:38:52;10.70;;;2.03;;
24161;SDS011;12318;51.262;7.066;2023-04-03T08:44:09;4.65;;;1.75;;
24161;SDS011;12318;51.262;7.066;2023-04-03T08:51:51;6.22;;;1.52;;
24161;SDS011;12318;51.262;7.066;2023-04-03T08:54:22;6.80;;;1.92;;
24161;SDS011;12318;51.262;7.066;2023-04-03T08:56:58;6.38;;;1.90;;
24161;SDS011;12318;51.262;7.066;2023-04-03T08:59:28;6.57;;;1.70;;
24161;SDS011;12318;51.262;7.066;2023-04-03T09:01:58;3.70;;;1.70;;
24161;SDS011;12318;51.262;7.066;2023-04-03T09:04:30;7.75;;;1.55;;
24161;SDS011;12318;51.262;7.066;2023-04-03T09:06:59;3.90;;;1.40;;
24161;SDS011;12318;51.262;7.066;2023-04-03T09:12:15;6.32;;;1.40;;
24161;SDS011;12318;51.262;7.066;2023-04-03T09:14:46;5.95;;;1.63;;
24161;SDS011;12318;51.262;7.066;2023-04-03T09:17:29;5.45;;;1.67;;
24161;SDS011;12318;51.262;7.066;2023-04-03T09:22:34;3.90;;;1.40;;
24161;SDS011;12318;51.262;7.066;2023-04-03T09:25:25;9.38;;;1.75;;
24161;SDS011;12318;51.262;7.066;2023-04-03T09:27:56;7.03;;;1.50;;
24161;SDS011;12318;51.262;7.066;2023-04-03T09:30:22;6.70;;;1.60;;
24161;SDS011;12318;51.262;7.066;2023-04-03T09:32:50;5.72;;;1.33;;
24161;SDS011;12318;51.262;7.066;2023-04-03T09:35:27;5.88;;;1.48;;
24161;SDS011;12318;51.262;7.066;2023-04-03T09:38:18;4.88;;;1.77;;
24161;SDS011;12318;51.262;7.066;2023-04-03T09:41:04;8.32;;;1.48;;
24161;SDS011;12318;51.262;7.066;2023-04-03T09:43:32;4.00;;;1.40;;
24161;SDS011;12318;51.262;7.066;2023-04-03T09:48:58;4.60;;;1.40;;
24161;SDS011;12318;51.262;7.066;2023-04-03T09:51:28;7.43;;;1.70;;
24161;SDS011;12318;51.262;7.066;2023-04-03T09:53:55;6.05;;;1.50;;
24161;SDS011;12318;51.262;7.066;2023-04-03T09:56:23;3.95;;;1.50;;
24161;SDS011;12318;51.262;7.066;2023-04-03T10:04:05;8.70;;;1.88;;
24161;SDS011;12318;51.262;7.066;2023-04-03T10:06:32;8.95;;;1.92;;
24161;SDS011;12318;51.262;7.066;2023-04-03T10:09:06;5.55;;;1.63;;
24161;SDS011;12318;51.262;7.066;2023-04-03T10:11:58;5.68;;;1.73;;
24161;SDS011;12318;51.262;7.066;2023-04-03T10:14:30;16.15;;;5.57;;
24161;SDS011;12318;51.262;7.066;2023-04-03T10:17:21;7.53;;;3.13;;
24161;SDS011;12318;51.262;7.066;2023-04-03T10:27:57;2.83;;;1.20;;
24161;SDS011;12318;51.262;7.066;2023-04-03T10:36:07;4.40;;;0.85;;
24161;SDS011;12318;51.262;7.066;2023-04-03T10:59:12;3.97;;;0.57;;
24161;SDS011;12318;51.262;7.066;2023-04-03T11:01:47;4.90;;;0.50;;
24161;SDS011;12318;51.262;7.066;2023-04-03T11:04:17;2.40;;;0.57;;
24161;SDS011;12318;51.262;7.066;2023-04-03T11:06:46;2.75;;;0.90;;
24161;SDS011;12318;51.262;7.066;2023-04-03T11:09:21;2.92;;;0.75;;
24161;SDS011;12318;51.262;7.066;2023-04-03T11:12:00;3.15;;;0.80;;
24161;SDS011;12318;51.262;7.066;2023-04-03T11:14:36;1.85;;;0.70;;
24161;SDS011;12318;51.262;7.066;2023-04-03T11:17:49;1.70;;;0.70;;
24161;SDS011;12318;51.262;7.066;2023-04-03T11:23:16;4.47;;;0.70;;
24161;SDS011;12318;51.262;7.066;2023-04-03T11:25:38;2.95;;;0.52;;
24161;SDS011;12318;51.262;7.066;2023-04-03T11:28:11;3.10;;;0.70;;
24161;SDS011;12318;51.262;7.066;2023-04-03T11:36:24;2.20;;;0.90;;
24161;SDS011;12318;51.262;7.066;2023-04-03T11:47:50;3.72;;;0.90;;
24161;SDS011;12318;51.262;7.066;2023-04-03T12:05:55;3.00;;;0.70;;
24161;SDS011;12318;51.262;7.066;2023-04-03T12:13:34;2.50;;;0.70;;
24161;SDS011;12318;51.262;7.066;2023-04-03T12:16:08;3.25;;;0.90;;
24161;SDS011;12318;51.262;7.066;2023-04-03T12:24:01;1.67;;;0.60;;
24161;SDS011;12318;51.262;7.066;2023-04-03T12:35:10;2.88;;;0.70;;
24161;SDS011;12318;51.262;7.066;2023-04-03T12:46:15;2.55;;;0.82;;
24161;SDS011;12318;51.262;7.066;2023-04-03T12:51:12;5.22;;;1.40;;
24161;SDS011;12318;51.262;7.066;2023-04-03T12:54:27;1.85;;;0.80;;
24161;SDS011;12318;51.262;7.066;2023-04-03T12:57:16;3.25;;;1.05;;
24161;SDS011;12318;51.262;7.066;2023-04-03T12:59:50;3.40;;;1.10;;
24161;SDS011;12318;51.262;7.066;2023-04-03T13:02:19;3.60;;;1.42;;
24161;SDS011;12318;51.262;7.066;2023-04-03T13:04:56;3.67;;;1.15;;
24161;SDS011;12318;51.262;7.066;2023-04-03T13:07:34;2.67;;;1.20;;
24161;SDS011;12318;51.262;7.066;2023-04-03T13:10:13;3.60;;;1.10;;
24161;SDS011;12318;51.262;7.066;2023-04-03T13:12:48;7.38;;;1.85;;
24161;SDS011;12318;51.262;7.066;2023-04-03T13:16:01;4.35;;;1.00;;
24161;SDS011;12318;51.262;7.066;2023-04-03T13:18:21;4.03;;;1.00;;
24161;SDS011;12318;51.262;7.066;2023-04-03T13:20:51;5.60;;;1.10;;
24161;SDS011;12318;51.262;7.066;2023-04-03T13:23:18;3.38;;;0.82;;
24161;SDS011;12318;51.262;7.066;2023-04-03T13:25:46;2.53;;;0.80;;
24161;SDS011;12318;51.262;7.066;2023-04-03T13:28:14;4.38;;;1.42;;
24161;SDS011;12318;51.262;7.066;2023-04-03T13:31:00;2.55;;;1.08;;
24161;SDS011;12318;51.262;7.066;2023-04-03T13:33:40;2.92;;;1.02;;
24161;SDS011;12318;51.262;7.066;2023-04-03T13:36:32;6.25;;;1.40;;
24161;SDS011;12318;51.262;7.066;2023-04-03T13:39:07;6.05;;;1.45;;
24161;SDS011;12318;51.262;7.066;2023-04-03T13:41:54;4.82;;;1.15;;
24161;SDS011;12318;51.262;7.066;2023-04-03T13:46:50;4.90;;;1.17;;
24161;SDS011;12318;51.262;7.066;2023-04-03T13:57:25;6.60;;;1.25;;
24161;SDS011;12318;51.262;7.066;2023-04-03T13:59:51;3.53;;;0.95;;
24161;SDS011;12318;51.262;7.066;2023-04-03T14:02:21;8.20;;;1.35;;
24161;SDS011;12318;51.262;7.066;2023-04-03T14:04:55;3.42;;;1.23;;
24161;SDS011;12318;51.262;7.066;2023-04-03T14:07:25;1.90;;;0.90;;
24161;SDS011;12318;51.262;7.066;2023-04-03T14:09:51;4.78;;;1.00;;
24161;SDS011;12318;51.262;7.066;2023-04-03T14:14:49;2.60;;;0.93;;
24161;SDS011;12318;51.262;7.066;2023-04-03T14:17:19;5.00;;;1.38;;
24161;SDS011;12318;51.262;7.066;2023-04-03T14:19:47;6.65;;;1.35;;
24161;SDS011;12318;51.262;7.066;2023-04-03T14:22:22;3.08;;;1.10;;
24161;SDS011;12318;51.262;7.066;2023-04-03T14:24:51;7.22;;;1.40;;
24161;SDS011;12318;51.262;7.066;2023-04-03T14:27:22;2.92;;;0.85;;
24161;SDS011;12318;51.262;7.066;2023-04-03T14:29:58;4.65;;;1.25;;
24161;SDS011;12318;51.262;7.066;2023-04-03T14:32:24;2.70;;;1.10;;
24161;SDS011;12318;51.262;7.066;2023-04-03T14:34:51;2.75;;;1.20;;
24161;SDS011;12318;51.262;7.066;2023-04-03T14:37:19;6.10;;;1.27;;
24161;SDS011;12318;51.262;7.066;2023-04-03T14:39:47;5.55;;;1.08;;
24161;SDS011;12318;51.262;7.066;2023-04-03T14:42:19;4.97;;;1.58;;
24161;SDS011;12318;51.262;7.066;2023-04-03T14:44:47;4.78;;;1.08;;
24161;SDS011;12318;51.262;7.066;2023-04-03T14:47:16;4.93;;;1.35;;
24161;SDS011;12318;51.262;7.066;2023-04-03T14:49:46;6.80;;;1.30;;
24161;SDS011;12318;51.262;7.066;2023-04-03T14:52:22;2.78;;;1.08;;
24161;SDS011;12318;51.262;7.066;2023-04-03T14:54:51;6.70;;;1.10;;
24161;SDS011;12318;51.262;7.066;2023-04-03T14:57:18;4.35;;;1.25;;
24161;SDS011;12318;51.262;7.066;2023-04-03T14:59:45;4.15;;;1.50;;
24161;SDS011;12318;51.262;7.066;2023-04-03T15:04:51;3.50;;;1.10;;
24161;SDS011;12318;51.262;7.066;2023-04-03T15:07:17;5.55;;;1.50;;
24161;SDS011;12318;51.262;7.066;2023-04-03T15:09:43;6.50;;;1.45;;
24161;SDS011;12318;51.262;7.066;2023-04-03T15:12:09;5.22;;;1.20;;
24161;SDS011;12318;51.262;7.066;2023-04-03T15:14:35;3.63;;;1.30;;
24161;SDS011;12318;51.262;7.066;2023-04-03T15:17:01;5.03;;;1.23;;
24161;SDS011;12318;51.262;7.066;2023-04-03T15:19:28;5.05;;;1.00;;
24161;SDS011;12318;51.262;7.066;2023-04-03T15:21:56;5.25;;;1.25;;
24161;SDS011;12318;51.262;7.066;2023-04-03T15:24:22;4.63;;;1.10;;
24161;SDS011;12318;51.262;7.066;2023-04-03T15:26:48;8.15;;;1.30;;
24161;SDS011;12318;51.262;7.066;2023-04-03T15:29:13;4.70;;;1.27;;
24161;SDS011;12318;51.262;7.066;2023-04-03T15:31:39;5.45;;;1.25;;
24161;SDS011;12318;51.262;7.066;2023-04-03T15:34:05;5.82;;;1.33;;
24161;SDS011;12318;51.262;7.066;2023-04-03T15:36:31;3.97;;;1.35;;
24161;SDS011;12318;51.262;7.066;2023-04-03T15:38:57;4.05;;;1.45;;
24161;SDS011;12318;51.262;7.066;2023-04-03T15:41:23;3.05;;;1.05;;
24161;SDS011;12318;51.262;7.066;2023-04-03T15:43:48;5.63;;;2.90;;
24161;SDS011;12318;51.262;7.066;2023-04-03T15:46:14;3.38;;;1.13;;
24161;SDS011;12318;51.262;7.066;2023-04-03T15:48:40;7.55;;;1.20;;
24161;SDS011;12318;51.262;7.066;2023-04-03T15:51:06;7.45;;;1.42;;
24161;SDS011;12318;51.262;7.066;2023-04-03T15:53:32;3.83;;;1.17;;
24161;SDS011;12318;51.262;7.066;2023-04-03T15:55:58;4.55;;;1.50;;
24161;SDS011;12318;51.262;7.066;2023-04-03T15:58:23;6.20;;;1.42;;
24161;SDS011;12318;51.262;7.066;2023-04-03T16:00:50;6.03;;;1.50;;
24161;SDS011;12318;51.262;7.066;2023-04-03T16:03:17;5.20;;;1.73;;
24161;SDS011;12318;51.262;7.066;2023-04-03T16:05:44;4.28;;;1.10;;
24161;SDS011;12318;51.262;7.066;2023-04-03T16:08:11;6.93;;;1.15;;
24161;SDS011;12318;51.262;7.066;2023-04-03T16:10:37;4.90;;;1.40;;
24161;SDS011;12318;51.262;7.066;2023-04-03T16:13:04;5.88;;;1.90;;
24161;SDS011;12318;51.262;7.066;2023-04-03T16:15:30;9.05;;;1.75;;
24161;SDS011;12318;51.262;7.066;2023-04-03T16:17:58;7.95;;;1.45;;
24161;SDS011;12318;51.262;7.066;2023-04-03T16:20:24;5.30;;;1.60;;
24161;SDS011;12318;51.262;7.066;2023-04-03T16:22:51;3.60;;;1.40;;
24161;SDS011;12318;51.262;7.066;2023-04-03T16:25:17;4.78;;;1.30;;
24161;SDS011;12318;51.262;7.066;2023-04-03T16:27:43;5.10;;;1.30;;
24161;SDS011;12318;51.262;7.066;2023-04-03T16:30:09;4.95;;;1.30;;
24161;SDS011;12318;51.262;7.066;2023-04-03T16:32:36;7.88;;;1.23;;
24161;SDS011;12318;51.262;7.066;2023-04-03T16:35:03;5.00;;;1.42;;
24161;SDS011;12318;51.262;7.066;2023-04-03T16:37:30;3.83;;;1.40;;
24161;SDS011;12318;51.262;7.066;2023-04-03T16:39:56;5.40;;;1.42;;
24161;SDS011;12318;51.262;7.066;2023-04-03T16:42:23;4.13;;;1.40;;
24161;SDS011;12318;51.262;7.066;2023-04-03T16:44:50;6.68;;;1.75;;
24161;SDS011;12318;51.262;7.066;2023-04-03T16:47:16;5.53;;;1.52;;
24161;SDS011;12318;51.262;7.066;2023-04-03T16:49:44;2.45;;;1.10;;
24161;SDS011;12318;51.262;7.066;2023-04-03T16:52:11;4.28;;;1.50;;
24161;SDS011;12318;51.262;7.066;2023-04-03T16:54:37;8.35;;;2.00;;
24161;SDS011;12318;51.262;7.066;2023-04-03T16:57:02;6.78;;;1.60;;
24161;SDS011;12318;51.262;7.066;2023-04-03T16:59:28;3.28;;;1.23;;
24161;SDS011;12318;51.262;7.066;2023-04-03T17:01:54;4.20;;;1.23;;
24161;SDS011;12318;51.262;7.066;2023-04-03T17:04:20;4.05;;;1.48;;
24161;SDS011;12318;51.262;7.066;2023-04-03T17:06:45;3.45;;;1.35;;
24161;SDS011;12318;51.262;7.066;2023-04-03T17:09:11;5.57;;;1.55;;
24161;SDS011;12318;51.262;7.066;2023-04-03T17:11:38;3.20;;;1.33;;
24161;SDS011;12318;51.262;7.066;2023-04-03T17:14:04;3.72;;;1.10;;
24161;SDS011;12318;51.262;7.066;2023-04-03T17:16:31;5.38;;;1.65;;